sensor_id;sensor_type;location;lat;lon;timestamp;P1;durP1;ratioP1;P2;durP2;ratioP2
18867;SDS011;9563;49.240;9.088;2023-08-20T04:00:39;11.82;;;7.30;;
18867;SDS011;9563;49.240;9.088;2023-08-20T04:03:05;10.27;;;7.15;;
18867;SDS011;9563;49.240;9.088;2023-08-20T04:05:35;9.75;;;7.40;;
18867;SDS011;9563;49.240;9.088;2023-08-20T04:08:02;12.23;;;7.18;;
18867;SDS011;9563;49.240;9.088;2023-08-20T04:10:29;13.05;;;7.82;;
18867;SDS011;9563;49.240;9.088;2023-08-20T04:12:57;11.55;;;7.65;;
18867;SDS011;9563;49.240;9.088;2023-08-20T04:15:24;12.32;;;7.95;;
18867;SDS011;9563;49.240;9.088;2023-08-20T04:17:53;11.75;;;7.65;;
18867;SDS011;9563;49.240;9.088;2023-08-20T04:20:19;12.50;;;7.78;;
18867;SDS011;9563;49.240;9.088;2023-08-20T04:22:46;8.25;;;7.13;;
18867;SDS011;9563;49.240;9.088;2023-08-20T04:25:13;14.27;;;8.25;;
18867;SDS011;9563;49.240;9.088;2023-08-20T04:27:40;11.07;;;7.38;;
18867;SDS011;9563;49.240;9.088;2023-08-20T04:30:07;14.93;;;8.95;;
18867;SDS011;9563;49.240;9.088;2023-08-20T04:32:35;10.82;;;8.10;;
18867;SDS011;9563;49.240;9.088;2023-08-20T04:35:04;11.80;;;8.70;;
18867;SDS011;9563;49.240;9.088;2023-08-20T04:37:31;14.57;;;8.77;;
18867;SDS011;9563;49.240;9.088;2023-08-20T04:39:58;14.70;;;8.60;;
18867;SDS011;9563;49.240;9.088;2023-08-20T04:42:25;9.25;;;7.38;;
18867;SDS011;9563;49.240;9.088;2023-08-20T04:44:52;16.65;;;9.07;;
18867;SDS011;9563;49.240;9.088;2023-08-20T04:47:19;12.43;;;8.23;;
18867;SDS011;9563;49.240;9.088;2023-08-20T04:49:45;11.63;;;7.95;;
18867;SDS011;9563;49.240;9.088;2023-08-20T04:52:14;13.85;;;8.13;;
18867;SDS011;9563;49.240;9.088;2023-08-20T04:54:40;11.02;;;7.63;;
18867;SDS011;9563;49.240;9.088;2023-08-20T04:57:07;13.45;;;8.30;;
18867;SDS011;9563;49.240;9.088;2023-08-20T04:59:34;13.18;;;8.18;;
18867;SDS011;9563;49.240;9.088;2023-08-20T05:02:01;12.40;;;7.95;;
18867;SDS011;9563;49.240;9.088;2023-08-20T05:04:28;10.82;;;7.55;;
18867;SDS011;9563;49.240;9.088;2023-08-20T05:06:55;11.38;;;8.60;;
18867;SDS011;9563;49.240;9.088;2023-08-20T05:09:23;13.50;;;8.07;;
18867;SDS011;9563;49.240;9.088;2023-08-20T05:11:50;10.38;;;7.88;;
18867;SDS011;9563;49.240;9.088;2023-08-20T05:14:17;10.70;;;7.53;;
18867;SDS011;9563;49.240;9.088;2023-08-20T05:16:43;14.02;;;8.20;;
18867;SDS011;9563;49.240;9.088;2023-08-20T05:19:10;11.90;;;7.97;;
18867;SDS011;9563;49.240;9.088;2023-08-20T05:21:37;14.50;;;8.20;;
18867;SDS011;9563;49.240;9.088;2023-08-20T05:24:04;11.18;;;9.05;;
18867;SDS011;9563;49.240;9.088;2023-08-20T05:26:33;16.15;;;9.48;;
18867;SDS011;9563;49.240;9.088;2023-08-20T05:29:00;12.38;;;9.18;;
18867;SDS011;9563;49.240;9.088;2023-08-20T05:31:27;14.05;;;10.23;;
18867;SDS011;9563;49.240;9.088;2023-08-20T05:33:54;10.15;;;7.88;;
18867;SDS011;9563;49.240;9.088;2023-08-20T05:36:21;10.98;;;8.38;;
18867;SDS011;9563;49.240;9.088;2023-08-20T05:38:49;13.73;;;8.50;;
18867;SDS011;9563;49.240;9.088;2023-08-20T05:41:15;16.33;;;9.70;;
18867;SDS011;9563;49.240;9.088;2023-08-20T05:43:44;18.10;;;10.80;;
18867;SDS011;9563;49.240;9.088;2023-08-20T05:46:11;12.73;;;9.80;;
18867;SDS011;9563;49.240;9.088;2023-08-20T05:48:37;16.73;;;10.45;;
18867;SDS011;9563;49.240;9.088;2023-08-20T05:51:04;10.40;;;8.65;;
18867;SDS011;9563;49.240;9.088;2023-08-20T05:53:31;14.30;;;9.75;;
18867;SDS011;9563;49.240;9.088;2023-08-20T05:55:58;12.45;;;9.13;;
18867;SDS011;9563;49.240;9.088;2023-08-20T05:58:24;10.23;;;8.02;;
18867;SDS011;9563;49.240;9.088;2023-08-20T06:00:53;13.88;;;8.43;;
18867;SDS011;9563;49.240;9.088;2023-08-20T06:03:20;15.77;;;10.02;;
18867;SDS011;9563;49.240;9.088;2023-08-20T06:05:46;15.73;;;9.27;;
18867;SDS011;9563;49.240;9.088;2023-08-20T06:08:13;13.95;;;10.32;;
18867;SDS011;9563;49.240;9.088;2023-08-20T06:10:40;13.88;;;9.93;;
18867;SDS011;9563;49.240;9.088;2023-08-20T06:13:07;14.18;;;10.35;;
18867;SDS011;9563;49.240;9.088;2023-08-20T06:15:33;14.95;;;9.63;;
18867;SDS011;9563;49.240;9.088;2023-08-20T06:18:01;18.23;;;8.65;;
18867;SDS011;9563;49.240;9.088;2023-08-20T06:20:29;14.23;;;9.35;;
18867;SDS011;9563;49.240;9.088;2023-08-20T06:22:55;15.30;;;10.35;;
18867;SDS011;9563;49.240;9.088;2023-08-20T06:25:22;17.08;;;10.25;;
18867;SDS011;9563;49.240;9.088;2023-08-20T06:27:49;16.25;;;12.15;;
18867;SDS011;9563;49.240;9.088;2023-08-20T06:30:16;15.25;;;10.27;;
18867;SDS011;9563;49.240;9.088;2023-08-20T06:32:43;13.07;;;10.38;;
18867;SDS011;9563;49.240;9.088;2023-08-20T06:35:12;15.98;;;10.98;;
18867;SDS011;9563;49.240;9.088;2023-08-20T06:37:39;17.40;;;10.65;;
18867;SDS011;9563;49.240;9.088;2023-08-20T06:40:06;16.17;;;11.55;;
18867;SDS011;9563;49.240;9.088;2023-08-20T06:42:34;20.90;;;10.85;;
18867;SDS011;9563;49.240;9.088;2023-08-20T06:45:01;13.10;;;9.57;;
18867;SDS011;9563;49.240;9.088;2023-08-20T06:47:27;13.63;;;10.73;;
18867;SDS011;9563;49.240;9.088;2023-08-20T06:49:54;13.10;;;8.73;;
18867;SDS011;9563;49.240;9.088;2023-08-20T06:52:22;13.60;;;10.07;;
18867;SDS011;9563;49.240;9.088;2023-08-20T06:54:49;13.75;;;10.60;;
18867;SDS011;9563;49.240;9.088;2023-08-20T06:57:16;13.30;;;9.18;;
18867;SDS011;9563;49.240;9.088;2023-08-20T06:59:43;17.17;;;9.90;;
18867;SDS011;9563;49.240;9.088;2023-08-20T07:02:09;25.88;;;12.50;;
18867;SDS011;9563;49.240;9.088;2023-08-20T07:04:36;17.05;;;10.80;;
18867;SDS011;9563;49.240;9.088;2023-08-20T07:07:03;18.88;;;11.63;;
18867;SDS011;9563;49.240;9.088;2023-08-20T07:09:32;14.63;;;10.23;;
18867;SDS011;9563;49.240;9.088;2023-08-20T07:11:59;15.00;;;10.73;;
18867;SDS011;9563;49.240;9.088;2023-08-20T07:14:26;16.85;;;10.38;;
18867;SDS011;9563;49.240;9.088;2023-08-20T07:16:52;14.50;;;9.38;;
18867;SDS011;9563;49.240;9.088;2023-08-20T07:19:19;20.35;;;11.25;;
18867;SDS011;9563;49.240;9.088;2023-08-20T07:21:46;14.05;;;10.00;;
18867;SDS011;9563;49.240;9.088;2023-08-20T07:24:13;15.48;;;10.38;;
18867;SDS011;9563;49.240;9.088;2023-08-20T07:26:41;12.25;;;9.00;;
18867;SDS011;9563;49.240;9.088;2023-08-20T07:29:08;10.43;;;8.60;;
18867;SDS011;9563;49.240;9.088;2023-08-20T07:31:35;13.25;;;9.57;;
18867;SDS011;9563;49.240;9.088;2023-08-20T07:34:02;13.15;;;9.18;;
18867;SDS011;9563;49.240;9.088;2023-08-20T07:36:29;10.63;;;8.48;;
18867;SDS011;9563;49.240;9.088;2023-08-20T07:38:56;17.45;;;8.77;;
18867;SDS011;9563;49.240;9.088;2023-08-20T07:41:23;17.50;;;10.57;;
18867;SDS011;9563;49.240;9.088;2023-08-20T07:43:51;12.45;;;8.68;;
18867;SDS011;9563;49.240;9.088;2023-08-20T07:46:18;11.60;;;8.98;;
18867;SDS011;9563;49.240;9.088;2023-08-20T07:48:45;11.63;;;8.85;;
18867;SDS011;9563;49.240;9.088;2023-08-20T07:51:12;8.75;;;7.85;;
18867;SDS011;9563;49.240;9.088;2023-08-20T07:53:39;10.88;;;8.00;;
18867;SDS011;9563;49.240;9.088;2023-08-20T07:56:06;11.10;;;8.20;;
18867;SDS011;9563;49.240;9.088;2023-08-20T07:58:33;11.15;;;7.57;;
18867;SDS011;9563;49.240;9.088;2023-08-20T08:01:02;12.27;;;8.18;;
18867;SDS011;9563;49.240;9.088;2023-08-20T08:03:31;9.55;;;6.75;;
18867;SDS011;9563;49.240;9.088;2023-08-20T08:06:00;7.63;;;6.82;;
18867;SDS011;9563;49.240;9.088;2023-08-20T08:08:27;10.32;;;7.25;;
18867;SDS011;9563;49.240;9.088;2023-08-20T08:10:54;10.45;;;7.20;;
18867;SDS011;9563;49.240;9.088;2023-08-20T08:13:22;11.80;;;7.88;;
18867;SDS011;9563;49.240;9.088;2023-08-20T08:15:49;13.13;;;7.35;;
18867;SDS011;9563;49.240;9.088;2023-08-20T08:18:18;8.48;;;7.18;;
18867;SDS011;9563;49.240;9.088;2023-08-20T08:20:45;12.88;;;7.80;;
18867;SDS011;9563;49.240;9.088;2023-08-20T08:23:12;8.60;;;6.97;;
18867;SDS011;9563;49.240;9.088;2023-08-20T08:25:39;10.73;;;6.70;;
18867;SDS011;9563;49.240;9.088;2023-08-20T08:28:06;9.10;;;7.00;;
18867;SDS011;9563;49.240;9.088;2023-08-20T08:30:33;16.80;;;7.15;;
18867;SDS011;9563;49.240;9.088;2023-08-20T08:33:00;12.65;;;6.65;;
18867;SDS011;9563;49.240;9.088;2023-08-20T08:35:28;10.63;;;6.80;;
18867;SDS011;9563;49.240;9.088;2023-08-20T08:37:55;9.73;;;6.78;;
18867;SDS011;9563;49.240;9.088;2023-08-20T08:40:23;8.35;;;6.60;;
18867;SDS011;9563;49.240;9.088;2023-08-20T08:42:54;13.13;;;6.63;;
18867;SDS011;9563;49.240;9.088;2023-08-20T08:45:21;8.27;;;7.03;;
18867;SDS011;9563;49.240;9.088;2023-08-20T08:47:48;13.82;;;6.75;;
18867;SDS011;9563;49.240;9.088;2023-08-20T08:50:15;9.50;;;6.05;;
18867;SDS011;9563;49.240;9.088;2023-08-20T08:52:44;9.35;;;6.10;;
18867;SDS011;9563;49.240;9.088;2023-08-20T08:55:13;8.18;;;6.28;;
18867;SDS011;9563;49.240;9.088;2023-08-20T08:57:40;8.48;;;6.00;;
18867;SDS011;9563;49.240;9.088;2023-08-20T09:00:07;9.02;;;6.30;;
18867;SDS011;9563;49.240;9.088;2023-08-20T09:02:35;9.05;;;6.95;;
18867;SDS011;9563;49.240;9.088;2023-08-20T09:05:02;8.40;;;6.88;;
18867;SDS011;9563;49.240;9.088;2023-08-20T09:07:31;13.93;;;7.28;;
18867;SDS011;9563;49.240;9.088;2023-08-20T09:09:59;10.10;;;6.75;;
18867;SDS011;9563;49.240;9.088;2023-08-20T09:12:26;10.05;;;6.68;;
18867;SDS011;9563;49.240;9.088;2023-08-20T09:14:53;8.68;;;6.50;;
18867;SDS011;9563;49.240;9.088;2023-08-20T09:17:25;11.65;;;6.45;;
18867;SDS011;9563;49.240;9.088;2023-08-20T09:19:53;10.90;;;6.18;;
18867;SDS011;9563;49.240;9.088;2023-08-20T09:22:22;9.00;;;5.43;;
18867;SDS011;9563;49.240;9.088;2023-08-20T09:24:52;10.35;;;5.97;;
18867;SDS011;9563;49.240;9.088;2023-08-20T09:27:22;7.38;;;5.82;;
18867;SDS011;9563;49.240;9.088;2023-08-20T09:29:50;10.25;;;6.60;;
18867;SDS011;9563;49.240;9.088;2023-08-20T09:32:18;7.22;;;5.95;;
18867;SDS011;9563;49.240;9.088;2023-08-20T09:34:47;7.18;;;5.70;;
18867;SDS011;9563;49.240;9.088;2023-08-20T09:37:15;7.40;;;6.15;;
18867;SDS011;9563;49.240;9.088;2023-08-20T09:39:45;8.25;;;5.90;;
18867;SDS011;9563;49.240;9.088;2023-08-20T09:42:12;6.32;;;4.75;;
18867;SDS011;9563;49.240;9.088;2023-08-20T09:44:42;7.07;;;5.63;;
18867;SDS011;9563;49.240;9.088;2023-08-20T09:47:10;6.25;;;5.28;;
18867;SDS011;9563;49.240;9.088;2023-08-20T09:49:38;5.63;;;5.05;;
18867;SDS011;9563;49.240;9.088;2023-08-20T09:52:08;7.25;;;4.93;;
18867;SDS011;9563;49.240;9.088;2023-08-20T09:54:50;6.50;;;5.07;;
18867;SDS011;9563;49.240;9.088;2023-08-20T09:57:26;7.53;;;5.10;;
18867;SDS011;9563;49.240;9.088;2023-08-20T09:59:59;8.35;;;5.45;;
18867;SDS011;9563;49.240;9.088;2023-08-20T10:02:26;7.05;;;4.82;;
18867;SDS011;9563;49.240;9.088;2023-08-20T10:04:53;7.43;;;4.63;;
18867;SDS011;9563;49.240;9.088;2023-08-20T10:07:20;5.10;;;4.60;;
18867;SDS011;9563;49.240;9.088;2023-08-20T10:09:50;5.53;;;4.95;;
18867;SDS011;9563;49.240;9.088;2023-08-20T10:12:18;7.15;;;4.80;;
18867;SDS011;9563;49.240;9.088;2023-08-20T10:14:45;6.95;;;4.28;;
18867;SDS011;9563;49.240;9.088;2023-08-20T10:17:13;7.57;;;4.47;;
18867;SDS011;9563;49.240;9.088;2023-08-20T10:19:41;5.38;;;4.38;;
18867;SDS011;9563;49.240;9.088;2023-08-20T10:22:07;6.20;;;4.72;;
18867;SDS011;9563;49.240;9.088;2023-08-20T10:24:41;5.20;;;4.32;;
18867;SDS011;9563;49.240;9.088;2023-08-20T10:27:22;5.50;;;4.47;;
18867;SDS011;9563;49.240;9.088;2023-08-20T10:29:52;8.07;;;4.75;;
18867;SDS011;9563;49.240;9.088;2023-08-20T10:32:21;5.13;;;4.43;;
18867;SDS011;9563;49.240;9.088;2023-08-20T10:35:13;7.03;;;4.53;;
18867;SDS011;9563;49.240;9.088;2023-08-20T10:43:23;6.40;;;4.25;;
18867;SDS011;9563;49.240;9.088;2023-08-20T10:46:03;6.15;;;4.45;;
18867;SDS011;9563;49.240;9.088;2023-08-20T10:48:36;6.03;;;4.25;;
18867;SDS011;9563;49.240;9.088;2023-08-20T10:51:11;6.13;;;4.43;;
18867;SDS011;9563;49.240;9.088;2023-08-20T10:53:40;7.25;;;4.20;;
18867;SDS011;9563;49.240;9.088;2023-08-20T10:56:09;5.03;;;4.15;;
18867;SDS011;9563;49.240;9.088;2023-08-20T10:58:38;6.57;;;4.35;;
18867;SDS011;9563;49.240;9.088;2023-08-20T11:01:12;6.03;;;4.45;;
18867;SDS011;9563;49.240;9.088;2023-08-20T11:03:47;9.63;;;4.07;;
18867;SDS011;9563;49.240;9.088;2023-08-20T11:06:14;6.20;;;4.60;;
18867;SDS011;9563;49.240;9.088;2023-08-20T11:08:42;8.77;;;4.50;;
18867;SDS011;9563;49.240;9.088;2023-08-20T11:11:09;7.50;;;4.10;;
18867;SDS011;9563;49.240;9.088;2023-08-20T11:13:37;7.85;;;4.40;;
18867;SDS011;9563;49.240;9.088;2023-08-20T11:16:05;7.60;;;4.43;;
18867;SDS011;9563;49.240;9.088;2023-08-20T11:18:32;8.52;;;4.00;;
18867;SDS011;9563;49.240;9.088;2023-08-20T11:21:01;4.50;;;4.10;;
18867;SDS011;9563;49.240;9.088;2023-08-20T11:23:29;5.68;;;4.15;;
18867;SDS011;9563;49.240;9.088;2023-08-20T11:25:56;7.47;;;4.38;;
18867;SDS011;9563;49.240;9.088;2023-08-20T11:28:25;8.32;;;4.70;;
18867;SDS011;9563;49.240;9.088;2023-08-20T11:30:52;7.88;;;4.20;;
18867;SDS011;9563;49.240;9.088;2023-08-20T11:33:20;7.40;;;4.45;;
18867;SDS011;9563;49.240;9.088;2023-08-20T11:35:48;4.95;;;4.03;;
18867;SDS011;9563;49.240;9.088;2023-08-20T11:38:16;6.18;;;3.97;;
18867;SDS011;9563;49.240;9.088;2023-08-20T11:40:43;6.53;;;4.35;;
18867;SDS011;9563;49.240;9.088;2023-08-20T11:43:10;7.03;;;4.63;;
18867;SDS011;9563;49.240;9.088;2023-08-20T11:45:44;9.93;;;4.50;;
18867;SDS011;9563;49.240;9.088;2023-08-20T11:48:12;5.45;;;4.57;;
18867;SDS011;9563;49.240;9.088;2023-08-20T11:50:39;9.98;;;4.57;;
18867;SDS011;9563;49.240;9.088;2023-08-20T11:53:07;10.50;;;4.25;;
18867;SDS011;9563;49.240;9.088;2023-08-20T11:55:37;9.07;;;4.00;;
18867;SDS011;9563;49.240;9.088;2023-08-20T11:58:04;6.15;;;4.00;;
18867;SDS011;9563;49.240;9.088;2023-08-20T12:00:31;5.63;;;4.15;;
18867;SDS011;9563;49.240;9.088;2023-08-20T12:02:58;7.80;;;3.85;;
18867;SDS011;9563;49.240;9.088;2023-08-20T12:05:28;5.55;;;4.15;;
18867;SDS011;9563;49.240;9.088;2023-08-20T12:07:55;4.22;;;3.50;;
18867;SDS011;9563;49.240;9.088;2023-08-20T12:10:23;7.28;;;4.13;;
18867;SDS011;9563;49.240;9.088;2023-08-20T12:12:52;6.40;;;3.67;;
18867;SDS011;9563;49.240;9.088;2023-08-20T12:15:20;6.35;;;4.03;;
18867;SDS011;9563;49.240;9.088;2023-08-20T12:17:58;8.63;;;4.22;;
18867;SDS011;9563;49.240;9.088;2023-08-20T12:20:26;8.60;;;4.15;;
18867;SDS011;9563;49.240;9.088;2023-08-20T12:22:55;6.43;;;3.80;;
18867;SDS011;9563;49.240;9.088;2023-08-20T12:25:24;7.45;;;3.90;;
18867;SDS011;9563;49.240;9.088;2023-08-20T12:27:52;8.88;;;4.63;;
18867;SDS011;9563;49.240;9.088;2023-08-20T12:30:19;6.13;;;3.58;;
18867;SDS011;9563;49.240;9.088;2023-08-20T12:32:46;6.00;;;4.03;;
18867;SDS011;9563;49.240;9.088;2023-08-20T12:35:13;4.28;;;3.72;;
18867;SDS011;9563;49.240;9.088;2023-08-20T12:37:40;4.22;;;3.67;;
18867;SDS011;9563;49.240;9.088;2023-08-20T12:40:07;5.30;;;3.95;;
18867;SDS011;9563;49.240;9.088;2023-08-20T12:42:35;6.18;;;4.00;;
18867;SDS011;9563;49.240;9.088;2023-08-20T12:45:05;5.93;;;4.10;;
18867;SDS011;9563;49.240;9.088;2023-08-20T12:47:33;6.30;;;3.95;;
18867;SDS011;9563;49.240;9.088;2023-08-20T12:49:59;6.03;;;4.20;;
18867;SDS011;9563;49.240;9.088;2023-08-20T12:52:28;6.50;;;4.18;;
18867;SDS011;9563;49.240;9.088;2023-08-20T12:54:55;6.00;;;3.60;;
18867;SDS011;9563;49.240;9.088;2023-08-20T12:57:21;7.57;;;3.85;;
18867;SDS011;9563;49.240;9.088;2023-08-20T12:59:48;5.10;;;3.65;;
18867;SDS011;9563;49.240;9.088;2023-08-20T13:02:17;5.80;;;4.00;;
18867;SDS011;9563;49.240;9.088;2023-08-20T13:04:44;5.90;;;4.10;;
18867;SDS011;9563;49.240;9.088;2023-08-20T13:07:12;6.05;;;3.80;;
18867;SDS011;9563;49.240;9.088;2023-08-20T13:09:39;5.78;;;3.85;;
18867;SDS011;9563;49.240;9.088;2023-08-20T13:12:07;4.88;;;3.97;;
18867;SDS011;9563;49.240;9.088;2023-08-20T13:14:37;6.20;;;4.05;;
18867;SDS011;9563;49.240;9.088;2023-08-20T13:17:06;5.97;;;3.72;;
18867;SDS011;9563;49.240;9.088;2023-08-20T13:19:35;5.30;;;4.10;;
18867;SDS011;9563;49.240;9.088;2023-08-20T13:22:02;6.70;;;3.88;;
18867;SDS011;9563;49.240;9.088;2023-08-20T13:24:29;7.70;;;4.13;;
18867;SDS011;9563;49.240;9.088;2023-08-20T13:26:56;5.45;;;4.18;;
18867;SDS011;9563;49.240;9.088;2023-08-20T13:29:23;7.82;;;4.03;;
18867;SDS011;9563;49.240;9.088;2023-08-20T13:31:49;6.13;;;3.80;;
18867;SDS011;9563;49.240;9.088;2023-08-20T13:34:16;7.13;;;4.20;;
18867;SDS011;9563;49.240;9.088;2023-08-20T13:36:45;8.70;;;4.05;;
18867;SDS011;9563;49.240;9.088;2023-08-20T13:39:12;6.82;;;3.78;;
18867;SDS011;9563;49.240;9.088;2023-08-20T13:41:40;5.10;;;3.90;;
18867;SDS011;9563;49.240;9.088;2023-08-20T13:44:07;6.53;;;4.13;;
18867;SDS011;9563;49.240;9.088;2023-08-20T13:46:34;8.63;;;4.20;;
18867;SDS011;9563;49.240;9.088;2023-08-20T13:49:01;5.07;;;4.10;;
18867;SDS011;9563;49.240;9.088;2023-08-20T13:51:28;5.07;;;4.00;;
18867;SDS011;9563;49.240;9.088;2023-08-20T13:53:57;5.68;;;3.47;;
18867;SDS011;9563;49.240;9.088;2023-08-20T13:56:24;5.05;;;3.30;;
18867;SDS011;9563;49.240;9.088;2023-08-20T13:58:51;6.07;;;3.53;;
18867;SDS011;9563;49.240;9.088;2023-08-20T14:01:18;5.80;;;3.97;;
18867;SDS011;9563;49.240;9.088;2023-08-20T14:03:45;8.45;;;3.97;;
18867;SDS011;9563;49.240;9.088;2023-08-20T14:06:12;6.13;;;3.30;;
18867;SDS011;9563;49.240;9.088;2023-08-20T14:08:39;7.00;;;3.72;;
18867;SDS011;9563;49.240;9.088;2023-08-20T14:11:07;4.95;;;3.83;;
18867;SDS011;9563;49.240;9.088;2023-08-20T14:13:34;5.70;;;3.72;;
18867;SDS011;9563;49.240;9.088;2023-08-20T14:16:01;7.15;;;3.85;;
18867;SDS011;9563;49.240;9.088;2023-08-20T14:18:28;8.75;;;3.75;;
18867;SDS011;9563;49.240;9.088;2023-08-20T14:20:55;7.90;;;3.90;;
18867;SDS011;9563;49.240;9.088;2023-08-20T14:23:23;5.88;;;3.80;;
18867;SDS011;9563;49.240;9.088;2023-08-20T14:25:50;9.85;;;3.75;;
18867;SDS011;9563;49.240;9.088;2023-08-20T14:28:20;5.00;;;3.70;;
18867;SDS011;9563;49.240;9.088;2023-08-20T14:30:47;5.07;;;3.70;;
18867;SDS011;9563;49.240;9.088;2023-08-20T14:33:15;10.90;;;3.80;;
18867;SDS011;9563;49.240;9.088;2023-08-20T14:35:42;7.43;;;3.90;;
18867;SDS011;9563;49.240;9.088;2023-08-20T14:38:10;6.95;;;3.97;;
18867;SDS011;9563;49.240;9.088;2023-08-20T14:40:37;4.70;;;3.88;;
18867;SDS011;9563;49.240;9.088;2023-08-20T14:43:05;4.28;;;3.65;;
18867;SDS011;9563;49.240;9.088;2023-08-20T14:45:34;5.75;;;3.80;;
18867;SDS011;9563;49.240;9.088;2023-08-20T14:48:00;4.20;;;3.38;;
18867;SDS011;9563;49.240;9.088;2023-08-20T14:50:28;4.03;;;3.30;;
18867;SDS011;9563;49.240;9.088;2023-08-20T14:52:55;5.25;;;3.10;;
18867;SDS011;9563;49.240;9.088;2023-08-20T14:55:21;6.15;;;3.67;;
18867;SDS011;9563;49.240;9.088;2023-08-20T14:57:48;5.47;;;3.40;;
18867;SDS011;9563;49.240;9.088;2023-08-20T15:00:15;9.77;;;3.40;;
18867;SDS011;9563;49.240;9.088;2023-08-20T15:02:44;4.22;;;3.60;;
18867;SDS011;9563;49.240;9.088;2023-08-20T15:05:12;4.47;;;3.88;;
18867;SDS011;9563;49.240;9.088;2023-08-20T15:07:39;5.18;;;3.35;;
18867;SDS011;9563;49.240;9.088;2023-08-20T15:10:06;6.32;;;3.65;;
18867;SDS011;9563;49.240;9.088;2023-08-20T15:12:34;5.68;;;3.40;;
18867;SDS011;9563;49.240;9.088;2023-08-20T15:15:01;6.25;;;3.42;;
18867;SDS011;9563;49.240;9.088;2023-08-20T15:17:29;4.88;;;3.53;;
18867;SDS011;9563;49.240;9.088;2023-08-20T15:19:57;5.85;;;3.45;;
18867;SDS011;9563;49.240;9.088;2023-08-20T15:22:24;4.50;;;3.63;;
18867;SDS011;9563;49.240;9.088;2023-08-20T15:24:52;5.28;;;3.80;;
18867;SDS011;9563;49.240;9.088;2023-08-20T15:27:18;6.68;;;3.83;;
18867;SDS011;9563;49.240;9.088;2023-08-20T15:29:45;6.40;;;3.75;;
18867;SDS011;9563;49.240;9.088;2023-08-20T15:32:12;7.47;;;3.70;;
18867;SDS011;9563;49.240;9.088;2023-08-20T15:34:39;4.95;;;3.70;;
18867;SDS011;9563;49.240;9.088;2023-08-20T15:37:07;6.57;;;3.70;;
18867;SDS011;9563;49.240;9.088;2023-08-20T15:39:34;6.47;;;3.97;;
18867;SDS011;9563;49.240;9.088;2023-08-20T15:42:01;7.53;;;4.28;;
18867;SDS011;9563;49.240;9.088;2023-08-20T15:44:28;8.52;;;3.83;;
18867;SDS011;9563;49.240;9.088;2023-08-20T15:46:55;5.68;;;3.83;;
18867;SDS011;9563;49.240;9.088;2023-08-20T15:49:22;7.13;;;4.03;;
18867;SDS011;9563;49.240;9.088;2023-08-20T15:51:49;5.78;;;4.00;;
18867;SDS011;9563;49.240;9.088;2023-08-20T15:54:17;8.77;;;4.18;;
18867;SDS011;9563;49.240;9.088;2023-08-20T15:56:44;4.07;;;3.40;;
18867;SDS011;9563;49.240;9.088;2023-08-20T15:59:11;7.93;;;4.30;;
18867;SDS011;9563;49.240;9.088;2023-08-20T16:01:38;5.55;;;3.72;;
18867;SDS011;9563;49.240;9.088;2023-08-20T16:04:06;9.55;;;4.10;;
18867;SDS011;9563;49.240;9.088;2023-08-20T16:06:33;8.55;;;4.68;;
18867;SDS011;9563;49.240;9.088;2023-08-20T16:09:00;8.20;;;3.97;;
18867;SDS011;9563;49.240;9.088;2023-08-20T16:11:29;6.93;;;4.30;;
18867;SDS011;9563;49.240;9.088;2023-08-20T16:13:56;5.15;;;4.05;;
18867;SDS011;9563;49.240;9.088;2023-08-20T16:16:23;4.75;;;3.63;;
18867;SDS011;9563;49.240;9.088;2023-08-20T16:18:50;5.03;;;3.95;;
18867;SDS011;9563;49.240;9.088;2023-08-20T16:21:17;7.63;;;4.10;;
18867;SDS011;9563;49.240;9.088;2023-08-20T16:23:44;11.38;;;4.40;;
18867;SDS011;9563;49.240;9.088;2023-08-20T16:26:11;4.93;;;3.60;;
18867;SDS011;9563;49.240;9.088;2023-08-20T16:28:39;4.93;;;3.80;;
18867;SDS011;9563;49.240;9.088;2023-08-20T16:31:07;4.75;;;3.50;;
18867;SDS011;9563;49.240;9.088;2023-08-20T16:33:34;8.77;;;3.85;;
18867;SDS011;9563;49.240;9.088;2023-08-20T16:36:01;5.82;;;3.95;;
18867;SDS011;9563;49.240;9.088;2023-08-20T16:38:28;4.47;;;3.85;;
18867;SDS011;9563;49.240;9.088;2023-08-20T16:40:58;5.93;;;4.03;;
18867;SDS011;9563;49.240;9.088;2023-08-20T16:43:26;6.03;;;3.33;;
18867;SDS011;9563;49.240;9.088;2023-08-20T16:45:55;5.55;;;3.78;;
18867;SDS011;9563;49.240;9.088;2023-08-20T16:48:23;5.18;;;3.40;;
18867;SDS011;9563;49.240;9.088;2023-08-20T16:50:50;6.70;;;4.03;;
18867;SDS011;9563;49.240;9.088;2023-08-20T16:53:17;4.07;;;3.45;;
18867;SDS011;9563;49.240;9.088;2023-08-20T16:55:49;7.00;;;4.25;;
18867;SDS011;9563;49.240;9.088;2023-08-20T16:58:16;4.82;;;3.58;;
18867;SDS011;9563;49.240;9.088;2023-08-20T17:00:43;4.90;;;3.75;;
18867;SDS011;9563;49.240;9.088;2023-08-20T17:03:11;6.30;;;4.13;;
18867;SDS011;9563;49.240;9.088;2023-08-20T17:05:38;6.60;;;4.13;;
18867;SDS011;9563;49.240;9.088;2023-08-20T17:08:05;5.63;;;3.97;;
18867;SDS011;9563;49.240;9.088;2023-08-20T17:10:33;6.40;;;4.30;;
18867;SDS011;9563;49.240;9.088;2023-08-20T17:13:00;8.32;;;3.83;;
18867;SDS011;9563;49.240;9.088;2023-08-20T17:15:27;5.47;;;4.25;;
18867;SDS011;9563;49.240;9.088;2023-08-20T17:17:54;5.85;;;3.97;;
18867;SDS011;9563;49.240;9.088;2023-08-20T17:20:22;5.78;;;3.63;;
18867;SDS011;9563;49.240;9.088;2023-08-20T17:22:49;11.25;;;4.53;;
18867;SDS011;9563;49.240;9.088;2023-08-20T17:25:16;6.32;;;4.00;;
18867;SDS011;9563;49.240;9.088;2023-08-20T17:27:44;5.93;;;4.00;;
18867;SDS011;9563;49.240;9.088;2023-08-20T17:30:11;5.30;;;3.60;;
18867;SDS011;9563;49.240;9.088;2023-08-20T17:32:39;5.80;;;4.30;;
18867;SDS011;9563;49.240;9.088;2023-08-20T17:35:06;4.22;;;3.80;;
18867;SDS011;9563;49.240;9.088;2023-08-20T17:37:35;4.60;;;3.80;;
18867;SDS011;9563;49.240;9.088;2023-08-20T17:40:02;6.13;;;3.88;;
18867;SDS011;9563;49.240;9.088;2023-08-20T17:42:29;5.03;;;3.97;;
18867;SDS011;9563;49.240;9.088;2023-08-20T17:44:56;5.60;;;3.40;;
18867;SDS011;9563;49.240;9.088;2023-08-20T17:47:23;6.65;;;3.90;;
18867;SDS011;9563;49.240;9.088;2023-08-20T17:49:50;4.63;;;3.65;;
18867;SDS011;9563;49.240;9.088;2023-08-20T17:52:17;5.72;;;3.63;;
18867;SDS011;9563;49.240;9.088;2023-08-20T17:54:48;5.75;;;4.10;;
18867;SDS011;9563;49.240;9.088;2023-08-20T17:57:15;6.13;;;4.00;;
18867;SDS011;9563;49.240;9.088;2023-08-20T17:59:41;5.30;;;3.92;;
18867;SDS011;9563;49.240;9.088;2023-08-20T18:02:09;6.75;;;4.22;;
18867;SDS011;9563;49.240;9.088;2023-08-20T18:04:36;5.88;;;3.88;;
18867;SDS011;9563;49.240;9.088;2023-08-20T18:07:03;5.85;;;3.78;;
18867;SDS011;9563;49.240;9.088;2023-08-20T18:09:30;4.93;;;3.75;;
18867;SDS011;9563;49.240;9.088;2023-08-20T18:12:01;8.50;;;4.10;;
18867;SDS011;9563;49.240;9.088;2023-08-20T18:14:28;4.70;;;3.58;;
18867;SDS011;9563;49.240;9.088;2023-08-20T18:16:56;6.03;;;4.00;;
18867;SDS011;9563;49.240;9.088;2023-08-20T18:19:23;6.72;;;4.07;;
18867;SDS011;9563;49.240;9.088;2023-08-20T18:21:49;6.88;;;4.25;;
18867;SDS011;9563;49.240;9.088;2023-08-20T18:24:16;8.18;;;4.30;;
18867;SDS011;9563;49.240;9.088;2023-08-20T18:26:43;5.82;;;3.92;;
18867;SDS011;9563;49.240;9.088;2023-08-20T18:29:12;9.13;;;4.20;;
18867;SDS011;9563;49.240;9.088;2023-08-20T18:31:38;5.10;;;4.20;;
18867;SDS011;9563;49.240;9.088;2023-08-20T18:34:05;6.72;;;4.28;;
18867;SDS011;9563;49.240;9.088;2023-08-20T18:36:33;4.30;;;3.90;;
18867;SDS011;9563;49.240;9.088;2023-08-20T18:39:02;9.30;;;4.07;;
18867;SDS011;9563;49.240;9.088;2023-08-20T18:41:29;5.25;;;3.60;;
18867;SDS011;9563;49.240;9.088;2023-08-20T18:43:56;7.03;;;3.60;;
18867;SDS011;9563;49.240;9.088;2023-08-20T18:46:25;6.75;;;4.32;;
18867;SDS011;9563;49.240;9.088;2023-08-20T18:48:52;6.68;;;3.70;;
18867;SDS011;9563;49.240;9.088;2023-08-20T18:51:20;6.45;;;4.20;;
18867;SDS011;9563;49.240;9.088;2023-08-20T18:53:48;7.25;;;3.95;;
18867;SDS011;9563;49.240;9.088;2023-08-20T18:56:14;6.43;;;3.92;;
18867;SDS011;9563;49.240;9.088;2023-08-20T18:58:43;5.43;;;3.40;;
18867;SDS011;9563;49.240;9.088;2023-08-20T19:01:09;4.45;;;3.75;;
18867;SDS011;9563;49.240;9.088;2023-08-20T19:03:38;5.07;;;3.72;;